createdAt,value
2023-04-07T00:01:45.555Z,8.43
2023-04-07T00:04:12.665Z,9.33
2023-04-07T00:06:40.631Z,9.33
2023-04-07T00:09:07.664Z,8.53
2023-04-07T00:11:34.665Z,7.57
2023-04-07T00:14:01.691Z,7.43
2023-04-07T00:16:28.671Z,8.03
2023-04-07T00:18:55.757Z,9.97
2023-04-07T00:21:22.722Z,10.13
2023-04-07T00:23:49.775Z,8.27
2023-04-07T00:26:16.729Z,9.77
2023-04-07T00:28:44.677Z,9.87
2023-04-07T00:31:12.027Z,9.93
2023-04-07T00:33:39.211Z,8.57
2023-04-07T00:36:06.518Z,8.13
2023-04-07T00:38:33.473Z,8.97
2023-04-07T00:41:01.359Z,9.10
2023-04-07T00:43:28.391Z,9.03
2023-04-07T00:45:55.890Z,8.30
2023-04-07T00:48:23.037Z,10.50
2023-04-07T00:50:50.284Z,9.27
2023-04-07T00:53:17.601Z,8.63
2023-04-07T00:55:45.953Z,8.07
2023-04-07T00:58:13.021Z,10.50
2023-04-07T01:00:57.661Z,7.87
2023-04-07T01:03:34.930Z,9.27
2023-04-07T01:06:02.937Z,10.43
2023-04-07T01:09:07.471Z,8.77
2023-04-07T01:11:59.792Z,8.70
2023-04-07T01:14:33.191Z,8.87
2023-04-07T01:17:10.174Z,8.33
2023-04-07T01:19:40.799Z,8.20
2023-04-07T01:22:16.876Z,8.60
2023-04-07T01:25:18.397Z,8.30
2023-04-07T01:28:04.224Z,8.73
2023-04-07T01:31:44.155Z,9.30
2023-04-07T01:34:12.636Z,7.80
2023-04-07T01:36:40.488Z,8.63
2023-04-07T01:39:08.092Z,10.03
2023-04-07T01:41:36.676Z,9.00
2023-04-07T01:44:04.810Z,8.00
2023-04-07T01:46:31.904Z,10.23
2023-04-07T01:48:59.604Z,8.63
2023-04-07T01:51:28.839Z,8.47
2023-04-07T01:53:56.449Z,9.23
2023-04-07T01:56:23.718Z,8.37
2023-04-07T01:58:53.650Z,10.03
2023-04-07T02:01:23.623Z,8.87
2023-04-07T02:03:57.000Z,10.07
2023-04-07T02:06:32.305Z,8.37
2023-04-07T02:09:06.886Z,9.50
2023-04-07T02:11:36.193Z,8.93
2023-04-07T02:14:07.352Z,9.17
2023-04-07T02:16:48.837Z,9.63
2023-04-07T02:19:16.684Z,9.07
2023-04-07T02:21:44.397Z,9.33
2023-04-07T02:24:12.374Z,9.80
2023-04-07T02:26:39.364Z,9.63
2023-04-07T02:29:06.518Z,9.37
2023-04-07T02:31:33.517Z,9.30
2023-04-07T02:34:01.027Z,8.30
2023-04-07T02:36:28.106Z,8.50
2023-04-07T02:38:55.824Z,9.37
2023-04-07T02:41:23.052Z,9.77
2023-04-07T02:43:50.053Z,10.17
2023-04-07T02:46:17.129Z,9.13
2023-04-07T02:48:44.094Z,9.70
2023-04-07T02:51:11.342Z,8.50
2023-04-07T02:53:38.268Z,8.40
2023-04-07T02:56:05.913Z,8.20
2023-04-07T02:58:32.995Z,10.07
2023-04-07T03:01:00.234Z,8.63
2023-04-07T03:03:30.766Z,9.83
2023-04-07T03:06:07.887Z,8.87
2023-04-07T03:08:43.032Z,9.73
2023-04-07T03:11:10.958Z,8.83
2023-04-07T03:13:38.380Z,12.40
2023-04-07T03:16:20.646Z,8.93
2023-04-07T03:19:09.103Z,9.50
2023-04-07T03:21:40.735Z,8.90
2023-04-07T03:24:09.340Z,9.13
2023-04-07T03:26:37.446Z,9.77
2023-04-07T03:29:08.393Z,10.10
2023-04-07T03:42:20.956Z,10.30
2023-04-07T03:44:49.402Z,9.17
2023-04-07T03:47:16.567Z,9.63
2023-04-07T03:49:47.328Z,11.23
2023-04-07T03:52:15.683Z,9.30
2023-04-07T03:54:47.056Z,10.53
2023-04-07T03:57:14.747Z,8.77
2023-04-07T03:59:47.098Z,9.27
2023-04-07T04:02:14.396Z,9.57
2023-04-07T04:04:42.165Z,8.97
2023-04-07T04:07:10.891Z,9.33
2023-04-07T04:09:43.236Z,8.57
2023-04-07T04:12:11.471Z,9.30
2023-04-07T04:14:45.997Z,9.07
2023-04-07T04:17:15.678Z,11.27
2023-04-07T04:19:46.128Z,9.73
2023-04-07T04:22:33.584Z,9.57
2023-04-07T04:25:01.672Z,10.67
2023-04-07T04:27:29.161Z,8.53
2023-04-07T04:30:03.838Z,9.90
2023-04-07T04:32:37.042Z,8.53
2023-04-07T04:35:06.524Z,9.03
2023-04-07T04:37:38.984Z,8.50
2023-04-07T04:40:11.732Z,8.47
2023-04-07T04:42:40.088Z,8.17
2023-04-07T04:45:10.061Z,8.27
2023-04-07T04:47:39.503Z,9.23
2023-04-07T04:50:07.927Z,8.77
2023-04-07T04:52:39.575Z,9.47
2023-04-07T04:55:10.557Z,8.43
2023-04-07T04:57:38.624Z,8.10
2023-04-07T05:00:10.300Z,9.07
2023-04-07T05:02:39.715Z,9.20
2023-04-07T05:05:08.626Z,8.43
2023-04-07T05:07:35.950Z,10.53
2023-04-07T05:10:03.258Z,8.90
2023-04-07T05:12:32.692Z,9.20
2023-04-07T05:15:02.093Z,9.47
2023-04-07T05:17:29.236Z,9.03
2023-04-07T05:19:59.441Z,9.50
2023-04-07T05:22:36.434Z,10.70
2023-04-07T05:25:06.115Z,8.20
2023-04-07T05:27:33.870Z,9.47
2023-04-07T05:30:05.570Z,8.53
2023-04-07T05:32:35.380Z,10.67
2023-04-07T05:35:09.665Z,8.60
2023-04-07T05:37:41.785Z,8.67
2023-04-07T05:40:09.392Z,8.13
2023-04-07T05:42:36.683Z,9.50
2023-04-07T05:45:05.061Z,9.13
2023-04-07T05:47:33.701Z,9.87
2023-04-07T05:50:01.329Z,9.53
2023-04-07T05:52:28.508Z,8.23
2023-04-07T05:55:07.398Z,8.50
2023-04-07T05:57:34.841Z,9.43
2023-04-07T06:00:04.898Z,9.60
2023-04-07T06:02:41.607Z,9.60
2023-04-07T06:05:14.619Z,9.83
2023-04-07T06:07:42.247Z,11.53
2023-04-07T06:10:09.580Z,12.60
2023-04-07T06:12:36.674Z,12.47
2023-04-07T06:15:03.958Z,11.40
2023-04-07T06:17:31.362Z,10.33
2023-04-07T06:19:58.547Z,10.57
2023-04-07T06:22:25.765Z,11.30
2023-04-07T06:24:53.132Z,10.27
2023-04-07T06:27:21.796Z,11.40
2023-04-07T06:29:48.962Z,12.40
2023-04-07T06:32:17.200Z,13.10
2023-04-07T06:34:44.429Z,11.00
2023-04-07T06:37:11.684Z,11.63
2023-04-07T06:39:39.237Z,12.90
2023-04-07T06:42:06.460Z,11.67
2023-04-07T06:44:38.249Z,10.73
2023-04-07T06:47:05.442Z,12.57
2023-04-07T06:49:32.539Z,10.93
2023-04-07T06:51:59.615Z,11.80
2023-04-07T06:54:26.700Z,11.67
2023-04-07T06:56:54.639Z,10.77
2023-04-07T06:59:21.843Z,11.90
2023-04-07T07:01:49.510Z,10.03
2023-04-07T07:04:16.772Z,12.23
2023-04-07T07:06:44.023Z,10.97
2023-04-07T07:09:11.138Z,13.47
2023-04-07T07:11:38.333Z,10.80
2023-04-07T07:14:05.459Z,9.17
2023-04-07T07:16:32.506Z,11.20
2023-04-07T07:18:59.603Z,10.50
2023-04-07T07:21:26.980Z,10.37
2023-04-07T07:23:54.232Z,10.80
2023-04-07T07:26:21.392Z,11.67
2023-04-07T07:28:48.546Z,12.70
2023-04-07T07:31:15.989Z,10.50
2023-04-07T07:33:46.094Z,12.50
2023-04-07T07:36:13.414Z,13.47
2023-04-07T07:38:40.589Z,12.23
2023-04-07T07:41:08.034Z,11.73
2023-04-07T07:43:35.415Z,11.13
2023-04-07T07:46:02.586Z,14.40
2023-04-07T07:48:29.879Z,15.50
2023-04-07T07:50:57.114Z,12.73
2023-04-07T07:53:24.308Z,12.87
2023-04-07T07:55:51.631Z,13.53
2023-04-07T07:58:18.753Z,13.63
2023-04-07T08:00:45.867Z,12.27
2023-04-07T08:03:13.149Z,13.23
2023-04-07T08:05:40.974Z,13.57
2023-04-07T08:08:08.257Z,12.90
2023-04-07T08:10:35.437Z,13.93
2023-04-07T08:13:02.515Z,14.47
2023-04-07T08:15:29.687Z,16.40
2023-04-07T08:17:57.152Z,12.00
2023-04-07T08:20:24.326Z,15.43
2023-04-07T08:22:51.442Z,13.90
2023-04-07T08:25:19.486Z,13.20
2023-04-07T08:27:46.640Z,13.00
2023-04-07T08:30:13.768Z,14.17
2023-04-07T08:32:43.979Z,13.93
2023-04-07T08:35:11.854Z,13.73
2023-04-07T08:37:40.171Z,14.73
2023-04-07T08:40:07.821Z,16.07
2023-04-07T08:42:36.944Z,15.67
2023-04-07T08:45:06.461Z,16.00
2023-04-07T08:47:35.617Z,15.37
2023-04-07T08:50:08.675Z,14.00
2023-04-07T08:52:56.722Z,12.90
2023-04-07T08:55:24.144Z,13.50
2023-04-07T08:57:52.844Z,15.27
2023-04-07T09:00:20.171Z,15.03
2023-04-07T09:02:49.496Z,15.40
2023-04-07T09:05:16.745Z,12.80
2023-04-07T09:07:44.048Z,14.93
2023-04-07T09:10:11.446Z,13.77
2023-04-07T09:12:39.239Z,14.07
2023-04-07T09:15:08.395Z,15.10
2023-04-07T09:17:35.601Z,14.07
2023-04-07T09:20:04.960Z,16.10
2023-04-07T09:22:36.246Z,14.70
2023-04-07T09:25:22.738Z,13.67
2023-04-07T09:28:01.977Z,13.53
2023-04-07T09:30:30.717Z,16.57
2023-04-07T09:32:58.756Z,15.33
2023-04-07T09:35:28.373Z,14.50
2023-04-07T09:38:10.161Z,14.67
2023-04-07T09:40:37.730Z,14.17
2023-04-07T09:43:06.108Z,15.03
2023-04-07T09:45:36.655Z,15.27
2023-04-07T09:48:18.726Z,15.30
2023-04-07T09:50:49.597Z,15.00
2023-04-07T09:53:18.251Z,14.43
2023-04-07T09:55:46.143Z,16.63
2023-04-07T09:58:17.140Z,16.13
2023-04-07T10:00:45.889Z,18.40
2023-04-07T10:03:13.539Z,16.33
2023-04-07T10:05:41.703Z,16.63
2023-04-07T10:08:10.271Z,16.83
2023-04-07T10:10:43.292Z,15.50
2023-04-07T10:13:10.786Z,16.40
2023-04-07T10:15:38.143Z,16.43
2023-04-07T10:18:07.574Z,15.57
2023-04-07T10:20:35.431Z,16.10
2023-04-07T10:23:23.317Z,15.77
2023-04-07T10:25:52.767Z,16.10
2023-04-07T10:28:23.066Z,16.33
2023-04-07T10:30:50.776Z,14.53
2023-04-07T10:33:18.713Z,16.33
2023-04-07T10:36:08.175Z,15.77
2023-04-07T10:38:35.575Z,16.57
2023-04-07T10:41:33.395Z,16.13
2023-04-07T10:44:00.672Z,16.07
2023-04-07T10:46:52.037Z,14.90
2023-04-07T10:49:19.268Z,16.70
2023-04-07T10:52:24.868Z,14.00
2023-04-07T10:55:32.028Z,15.67
2023-04-07T10:58:26.287Z,16.23
2023-04-07T11:01:09.419Z,14.63
2023-04-07T11:03:42.326Z,14.63
2023-04-07T11:06:11.921Z,14.57
2023-04-07T11:08:48.377Z,14.43
2023-04-07T11:11:20.982Z,15.57
2023-04-07T11:13:50.258Z,14.87
2023-04-07T11:16:36.104Z,15.87
2023-04-07T11:19:03.440Z,15.30
2023-04-07T11:21:30.652Z,15.37
2023-04-07T11:23:57.767Z,14.10
2023-04-07T11:26:24.954Z,16.07
2023-04-07T11:28:53.975Z,14.53
2023-04-07T11:31:25.121Z,15.90
2023-04-07T11:33:58.992Z,15.07
2023-04-07T11:36:39.386Z,14.83
2023-04-07T11:39:17.718Z,14.20
2023-04-07T11:41:49.620Z,15.40
2023-04-07T11:44:17.010Z,14.30
2023-04-07T11:46:55.594Z,14.10
2023-04-07T11:49:26.586Z,15.70
2023-04-07T11:52:03.266Z,13.97
2023-04-07T11:54:44.137Z,14.37
2023-04-07T11:57:14.343Z,15.27
2023-04-07T11:59:42.202Z,13.80
2023-04-07T12:02:09.704Z,12.70
2023-04-07T12:04:40.326Z,14.93
2023-04-07T12:07:11.885Z,14.60
2023-04-07T12:09:40.260Z,14.63
2023-04-07T12:12:08.541Z,13.33
2023-04-07T12:14:36.637Z,15.33
2023-04-07T12:17:04.598Z,13.70
2023-04-07T12:19:34.925Z,12.93
2023-04-07T12:22:02.276Z,14.20
2023-04-07T12:24:29.471Z,14.43
2023-04-07T12:26:56.738Z,13.40
2023-04-07T12:29:24.287Z,17.80
2023-04-07T12:31:51.663Z,12.20
2023-04-07T12:34:19.277Z,13.90
2023-04-07T12:36:46.553Z,12.83
2023-04-07T12:39:13.793Z,12.23
2023-04-07T12:41:41.320Z,12.93
2023-04-07T12:44:08.800Z,13.73
2023-04-07T12:46:35.940Z,11.70
2023-04-07T12:49:03.446Z,12.43
2023-04-07T12:51:33.533Z,11.90
2023-04-07T12:54:01.025Z,11.93
2023-04-07T12:56:28.899Z,11.63
2023-04-07T12:58:56.140Z,12.33
2023-04-07T13:01:23.301Z,13.07
2023-04-07T13:03:51.481Z,10.20
2023-04-07T13:06:19.343Z,12.27
2023-04-07T13:08:46.507Z,11.47
2023-04-07T13:11:13.801Z,11.57
2023-04-07T13:13:40.888Z,12.30
2023-04-07T13:16:08.407Z,10.87
2023-04-07T13:18:35.567Z,13.60
2023-04-07T13:21:22.123Z,10.13
2023-04-07T13:23:51.695Z,12.30
2023-04-07T13:26:18.839Z,12.60
2023-04-07T13:28:46.308Z,11.17
2023-04-07T13:31:16.333Z,11.50
2023-04-07T13:33:44.626Z,11.13
2023-04-07T13:36:11.761Z,12.13
2023-04-07T13:38:38.945Z,11.90
2023-04-07T13:41:06.734Z,12.97
2023-04-07T13:43:33.961Z,12.23
2023-04-07T13:46:01.227Z,11.30
2023-04-07T13:48:28.579Z,11.15
2023-04-07T13:50:55.828Z,10.63
2023-04-07T13:53:23.455Z,11.93
2023-04-07T13:55:50.877Z,11.50
2023-04-07T13:58:18.344Z,12.97
2023-04-07T14:00:45.495Z,11.43
2023-04-07T14:03:12.773Z,12.23
2023-04-07T14:05:39.982Z,10.35
2023-04-07T14:08:07.108Z,12.85
2023-04-07T14:10:34.764Z,12.13
2023-04-07T14:13:02.249Z,12.18
2023-04-07T14:15:29.347Z,12.43
2023-04-07T14:17:56.529Z,12.20
2023-04-07T14:20:25.327Z,12.93
2023-04-07T14:22:53.810Z,10.32
2023-04-07T14:25:20.959Z,9.48
2023-04-07T14:27:48.102Z,10.00
2023-04-07T14:30:15.505Z,8.93
2023-04-07T14:32:42.668Z,9.95
2023-04-07T14:35:10.678Z,10.73
2023-04-07T14:37:38.910Z,10.80
2023-04-07T14:40:07.551Z,11.23
2023-04-07T14:42:35.803Z,11.13
2023-04-07T14:45:03.019Z,10.40
2023-04-07T14:47:30.341Z,10.68
2023-04-07T14:49:57.558Z,10.15
2023-04-07T14:52:24.780Z,10.75
2023-04-07T14:54:51.971Z,11.70
2023-04-07T14:57:19.761Z,10.10
2023-04-07T14:59:48.946Z,9.55
2023-04-07T15:02:16.350Z,10.85
2023-04-07T15:04:43.741Z,10.00
2023-04-07T15:07:11.265Z,10.15
2023-04-07T15:09:39.208Z,11.02
2023-04-07T15:12:06.600Z,10.07
2023-04-07T15:14:33.688Z,10.70
2023-04-07T15:17:00.872Z,10.32
2023-04-07T15:19:28.187Z,9.88
2023-04-07T15:21:55.301Z,10.93
2023-04-07T15:24:22.515Z,9.48
2023-04-07T15:26:49.915Z,10.60
2023-04-07T15:29:17.136Z,9.43
2023-04-07T15:31:44.425Z,10.13
2023-04-07T15:34:11.541Z,10.57
2023-04-07T15:36:38.748Z,10.57
2023-04-07T15:39:07.075Z,12.50
2023-04-07T15:41:34.532Z,10.67
2023-04-07T15:44:03.054Z,12.25
2023-04-07T15:46:32.120Z,11.07
2023-04-07T15:49:00.256Z,10.97
2023-04-07T15:51:27.768Z,12.53
2023-04-07T15:53:55.051Z,11.95
2023-04-07T15:56:24.826Z,11.10
2023-04-07T15:58:52.375Z,12.13
2023-04-07T16:01:20.102Z,9.47
2023-04-07T16:03:47.568Z,10.03
2023-04-07T16:06:15.049Z,8.83
2023-04-07T16:08:42.757Z,10.77
2023-04-07T16:11:09.932Z,10.53
2023-04-07T16:13:37.323Z,11.07
2023-04-07T16:16:04.642Z,11.07
2023-04-07T16:18:31.863Z,9.50
2023-04-07T16:20:59.088Z,11.63
2023-04-07T16:23:26.513Z,9.63
2023-04-07T16:25:53.745Z,8.38
2023-04-07T16:28:20.966Z,9.20
2023-04-07T16:30:48.043Z,9.35
2023-04-07T16:33:15.138Z,9.63
2023-04-07T16:35:42.459Z,10.20
2023-04-07T16:38:09.655Z,8.77
2023-04-07T16:40:36.805Z,9.20
2023-04-07T16:43:03.877Z,9.63
2023-04-07T16:45:31.471Z,9.40
2023-04-07T16:47:58.805Z,9.60
2023-04-07T16:50:26.050Z,8.93
2023-04-07T16:52:54.890Z,10.23
2023-04-07T16:55:22.264Z,9.03
2023-04-07T16:57:50.193Z,8.57
2023-04-07T17:00:17.452Z,9.67
2023-04-07T17:02:45.189Z,9.43
2023-04-07T17:05:12.381Z,8.60
2023-04-07T17:07:39.611Z,9.70
2023-04-07T17:10:07.288Z,10.73
2023-04-07T17:12:34.405Z,9.37
2023-04-07T17:15:01.726Z,10.13
2023-04-07T17:17:29.043Z,8.00
2023-04-07T17:19:57.354Z,10.13
2023-04-07T17:22:24.841Z,7.83
2023-04-07T17:24:52.525Z,9.13
2023-04-07T17:27:19.705Z,9.27
2023-04-07T17:29:46.921Z,8.03
2023-04-07T17:32:14.224Z,7.87
2023-04-07T17:34:41.690Z,7.40
2023-04-07T17:37:08.839Z,7.90
2023-04-07T17:39:36.295Z,6.73
2023-04-07T17:42:03.606Z,7.83
2023-04-07T17:44:31.188Z,7.60
2023-04-07T17:46:59.029Z,9.00
2023-04-07T17:49:26.746Z,6.93
2023-04-07T17:51:54.191Z,7.27
2023-04-07T17:54:21.985Z,7.53
2023-04-07T17:56:50.632Z,7.33
2023-04-07T17:59:17.985Z,6.87
2023-04-07T18:01:45.250Z,7.13
2023-04-07T18:04:13.245Z,7.73
2023-04-07T18:06:40.438Z,5.80
2023-04-07T18:09:07.581Z,6.53
2023-04-07T18:11:34.701Z,6.27
2023-04-07T18:14:02.287Z,6.27
2023-04-07T18:16:29.804Z,6.67
2023-04-07T18:18:57.629Z,7.20
2023-04-07T18:21:25.734Z,6.43
2023-04-07T18:23:52.923Z,7.37
2023-04-07T18:26:20.037Z,7.00
2023-04-07T18:28:47.122Z,8.53
2023-04-07T18:31:15.526Z,8.40
2023-04-07T18:33:42.765Z,8.90
2023-04-07T18:36:09.942Z,6.37
2023-04-07T18:38:38.190Z,7.10
2023-04-07T18:41:07.440Z,8.37
2023-04-07T18:43:34.802Z,8.10
2023-04-07T18:46:02.062Z,8.07
2023-04-07T18:48:29.207Z,8.20
2023-04-07T18:50:56.731Z,6.80
2023-04-07T18:53:25.397Z,8.10
2023-04-07T18:55:52.581Z,6.77
2023-04-07T18:58:20.202Z,8.83
2023-04-07T19:00:49.973Z,9.90
2023-04-07T19:03:17.573Z,8.47
2023-04-07T19:05:47.405Z,7.70
2023-04-07T19:08:16.082Z,7.53
2023-04-07T19:10:43.838Z,8.13
2023-04-07T19:13:11.195Z,7.00
2023-04-07T19:15:39.468Z,7.63
2023-04-07T19:18:08.386Z,7.50
2023-04-07T19:20:35.671Z,7.40
2023-04-07T19:23:03.405Z,7.37
2023-04-07T19:25:33.527Z,8.83
2023-04-07T19:28:01.181Z,7.97
2023-04-07T19:30:28.383Z,7.70
2023-04-07T19:32:56.505Z,7.60
2023-04-07T19:35:23.740Z,6.80
2023-04-07T19:37:52.132Z,7.70
2023-04-07T19:40:19.688Z,8.57
2023-04-07T19:42:47.246Z,6.93
2023-04-07T19:45:14.390Z,7.70
2023-04-07T19:47:42.668Z,8.23
2023-04-07T19:50:11.851Z,9.10
2023-04-07T19:52:39.070Z,9.27
2023-04-07T19:55:07.878Z,10.07
2023-04-07T19:57:36.081Z,9.33
2023-04-07T20:00:04.459Z,8.10
2023-04-07T20:02:31.813Z,8.23
2023-04-07T20:04:59.145Z,9.53
2023-04-07T20:07:26.515Z,9.53
2023-04-07T20:09:57.425Z,9.37
2023-04-07T20:12:24.937Z,8.97
2023-04-07T20:14:52.138Z,9.47
2023-04-07T20:17:20.512Z,9.13
2023-04-07T20:19:48.069Z,10.57
2023-04-07T20:22:15.634Z,11.13
2023-04-07T20:24:42.810Z,9.60
2023-04-07T20:27:09.965Z,9.40
2023-04-07T20:29:37.200Z,8.53
2023-04-07T20:32:04.368Z,9.70
2023-04-07T20:34:31.536Z,8.40
2023-04-07T20:36:58.679Z,9.00
2023-04-07T20:39:25.977Z,9.27
2023-04-07T20:41:53.149Z,9.77
2023-04-07T20:44:20.355Z,9.07
2023-04-07T20:46:47.575Z,10.03
2023-04-07T20:49:14.799Z,9.00
2023-04-07T20:51:42.036Z,8.93
2023-04-07T20:54:09.181Z,9.33
2023-04-07T20:56:36.955Z,9.60
2023-04-07T20:59:04.124Z,9.43
2023-04-07T21:01:31.567Z,8.97
2023-04-07T21:04:00.947Z,9.30
2023-04-07T21:06:28.276Z,7.87
2023-04-07T21:08:55.794Z,7.97
2023-04-07T21:11:23.016Z,8.80
2023-04-07T21:13:50.142Z,9.20
2023-04-07T21:16:17.406Z,9.70
2023-04-07T21:18:44.724Z,9.27
2023-04-07T21:21:11.990Z,9.13
2023-04-07T21:23:39.198Z,8.97
2023-04-07T21:26:06.390Z,9.63
2023-04-07T21:28:33.556Z,10.17
2023-04-07T21:31:01.418Z,9.33
2023-04-07T21:33:28.664Z,10.17
2023-04-07T21:35:56.263Z,9.13
2023-04-07T21:38:23.400Z,9.70
2023-04-07T21:40:50.754Z,9.07
2023-04-07T21:43:17.861Z,11.40
2023-04-07T21:45:46.268Z,8.37
2023-04-07T21:48:13.723Z,8.77
2023-04-07T21:50:40.880Z,8.30
2023-04-07T21:53:09.548Z,8.93
2023-04-07T21:55:36.684Z,8.17
2023-04-07T21:58:04.052Z,9.73
2023-04-07T22:00:31.525Z,8.50
2023-04-07T22:02:58.869Z,8.57
2023-04-07T22:05:26.551Z,8.67
2023-04-07T22:07:54.122Z,9.17
2023-04-07T22:10:21.309Z,8.77
2023-04-07T22:12:48.669Z,9.87
2023-04-07T22:15:15.901Z,8.67
2023-04-07T22:17:43.082Z,9.33
2023-04-07T22:20:11.871Z,8.70
2023-04-07T22:22:39.224Z,9.37
2023-04-07T22:25:06.895Z,8.53
2023-04-07T22:27:35.421Z,9.90
2023-04-07T22:30:03.786Z,8.77
2023-04-07T22:32:31.307Z,7.70
2023-04-07T22:34:58.379Z,8.73
2023-04-07T22:37:25.621Z,8.93
2023-04-07T22:39:52.828Z,8.20
2023-04-07T22:42:19.952Z,9.17
2023-04-07T22:44:47.111Z,8.47
2023-04-07T22:47:14.336Z,8.47
2023-04-07T22:49:42.130Z,10.17
2023-04-07T22:52:09.269Z,8.80
2023-04-07T22:54:36.547Z,7.70
2023-04-07T22:57:04.146Z,9.37
2023-04-07T22:59:31.797Z,8.40
2023-04-07T23:01:59.094Z,8.00
2023-04-07T23:04:27.338Z,8.27
2023-04-07T23:06:54.499Z,9.07
2023-04-07T23:09:22.035Z,7.93
2023-04-07T23:11:49.193Z,9.10
2023-04-07T23:14:16.475Z,8.50
2023-04-07T23:16:43.735Z,13.70
2023-04-07T23:19:11.954Z,8.77
2023-04-07T23:21:39.743Z,8.27
2023-04-07T23:24:07.096Z,9.90
2023-04-07T23:26:34.339Z,8.00
2023-04-07T23:29:01.812Z,8.77
2023-04-07T23:31:28.952Z,8.27
2023-04-07T23:33:56.273Z,9.23
2023-04-07T23:36:23.384Z,8.47
2023-04-07T23:38:50.872Z,8.87
2023-04-07T23:41:18.262Z,9.20
2023-04-07T23:43:45.661Z,10.07
2023-04-07T23:46:12.935Z,9.07
2023-04-07T23:48:40.080Z,9.63
2023-04-07T23:51:07.254Z,9.70
2023-04-07T23:53:34.395Z,11.13
2023-04-07T23:56:01.809Z,10.27
2023-04-07T23:58:29.042Z,9.37
